Airport ICAO


13:48 UTC

16°C

Rain


An affordable passengers' Moving Map for your aircraft. Made for the iPad and the iPhone
More information here

LFPB Le Bourget


Paris FRANCE   VFR CB


METAR LFPB 231330Z AUTO 32010KT 280V020 9999 2700 RA BKN013/// BKN021/// BKN037/// ///CB 16/15 Q1013 TEMPO 3000 -RA BECMG 34015G30KT SCT020 BKN025 0h18min

TAF LFPB 231100Z 2312/2412 24020G35KT 9999 SCT020 BKN025 TEMPO 2312/2314 28030G45KT 1500 +RA BKN010 BKN012TCU BECMG 2313/2315 32020G40KT PROB30 TEMPO 2315/2318 3000 -RA BECMG 2315/2317 34015G30KT BECMG 2319/2321 33010KT 2h48min





NOTAMS

OPEN